Time;durP1;ratioP1;P1;durP2;ratioP2;P2;SDS_P1;SDS_P2;PMS_P1;PMS_P2;Temp;Humidity;BMP_temperature;BMP_pressure;BME280_temperature;BME280_humidity;BME280_pressure;Samples;Min_cycle;Max_cycle;Signal;HPM_P1;HPM_P2
2021/09/28 00:01:33;;;;;;;7.38;1.77;;;10.30;99.90;;;;;;4766495;30;20051;-92
2021/09/28 00:03:59;;;;;;;11.73;1.73;;;10.20;99.90;;;;;;4764309;30;20062;-91
2021/09/28 00:06:25;;;;;;;6.80;1.35;;;10.20;99.90;;;;;;4765462;30;20130;-89
2021/09/28 00:08:50;;;;;;;8.00;1.80;;;10.20;99.90;;;;;;4782571;30;20147;-91
2021/09/28 00:11:16;;;;;;;9.85;2.53;;;10.20;99.90;;;;;;4768136;30;20111;-91
2021/09/28 00:13:42;;;;;;;7.78;1.50;;;10.20;99.90;;;;;;4766925;30;20052;-92
2021/09/28 00:16:07;;;;;;;9.90;2.00;;;10.20;99.90;;;;;;4758725;29;20058;-92
2021/09/28 00:18:34;;;;;;;13.57;1.98;;;10.10;99.90;;;;;;4767705;30;20063;-94
2021/09/28 00:20:59;;;;;;;9.52;1.58;;;10.10;99.90;;;;;;4768051;29;20074;-92
2021/09/28 00:23:25;;;;;;;11.77;1.83;;;10.10;99.90;;;;;;4773657;29;20489;-93
2021/09/28 00:25:51;;;;;;;6.38;1.55;;;10.00;99.90;;;;;;4769006;30;20112;-94
2021/09/28 00:28:17;;;;;;;10.05;1.80;;;10.00;99.90;;;;;;4769607;30;20169;-94
2021/09/28 00:30:44;;;;;;;10.18;1.65;;;9.90;99.90;;;;;;4788079;30;20083;-90
2021/09/28 00:33:10;;;;;;;10.40;1.85;;;9.90;99.90;;;;;;4752920;30;20061;-96
2021/09/28 00:35:37;;;;;;;13.15;2.97;;;9.90;99.90;;;;;;4752143;30;20067;-96
2021/09/28 00:38:03;;;;;;;12.90;2.50;;;9.80;99.90;;;;;;4910676;24;20046;-90
2021/09/28 00:40:30;;;;;;;11.65;2.90;;;9.80;99.90;;;;;;5286457;24;20085;-93
2021/09/28 00:42:57;;;;;;;12.38;2.95;;;9.80;99.90;;;;;;4824584;29;20042;-92
2021/09/28 00:45:23;;;;;;;14.40;3.22;;;9.80;99.90;;;;;;4808877;29;20046;-89
2021/09/28 00:47:49;;;;;;;15.55;3.95;;;9.80;99.90;;;;;;4827425;29;20065;-92
2021/09/28 00:50:15;;;;;;;15.93;3.30;;;9.70;99.90;;;;;;4778417;29;20058;-95
2021/09/28 00:52:44;;;;;;;9.85;2.90;;;9.70;99.90;;;;;;5526341;24;20021;-92
2021/09/28 00:55:10;;;;;;;10.75;2.55;;;9.70;99.90;;;;;;5026904;24;20098;-96
2021/09/28 00:57:38;;;;;;;11.40;3.22;;;9.70;99.90;;;;;;4806146;29;20031;-90
2021/09/28 01:00:07;;;;;;;18.73;3.25;;;9.60;99.90;;;;;;4801589;29;20481;-93
2021/09/28 01:02:33;;;;;;;17.42;3.20;;;9.60;99.90;;;;;;4789128;29;20048;-95
2021/09/28 01:05:03;;;;;;;6.82;2.80;;;9.60;99.90;;;;;;4799167;29;20684;-88
2021/09/28 01:07:32;;;;;;;11.47;3.30;;;9.60;99.90;;;;;;4803612;29;20031;-93
2021/09/28 01:09:58;;;;;;;9.30;3.67;;;9.60;99.90;;;;;;4795992;29;20056;-91
2021/09/28 01:12:27;;;;;;;13.20;3.30;;;9.60;99.90;;;;;;4788570;29;20058;-88
2021/09/28 01:20:42;;;;;;;13.02;3.50;;;9.50;99.90;;;;;;5503353;24;20280;-95
2021/09/28 01:25:43;;;;;;;11.90;3.38;;;9.40;99.90;;;;;;5313047;24;19929;-95
2021/09/28 01:30:42;;;;;;;9.00;3.97;;;9.30;99.90;;;;;;4836213;29;20101;-96
2021/09/28 01:33:08;;;;;;;10.88;3.67;;;9.30;99.90;;;;;;4808661;29;20084;-95
2021/09/28 01:35:38;;;;;;;14.02;4.32;;;9.30;99.90;;;;;;4818552;29;20054;-95
2021/09/28 01:38:05;;;;;;;11.90;4.10;;;9.30;99.90;;;;;;5175775;24;20025;-91
2021/09/28 01:40:31;;;;;;;12.50;3.95;;;9.30;99.90;;;;;;4950621;24;20045;-95
2021/09/28 01:45:32;;;;;;;11.73;4.07;;;9.30;99.90;;;;;;5399613;24;20347;-85
2021/09/28 01:48:06;;;;;;;14.90;4.47;;;9.30;99.90;;;;;;5436467;24;21020;31
2021/09/28 01:50:33;;;;;;;17.40;4.85;;;9.20;99.90;;;;;;5156515;24;20060;-87
2021/09/28 01:52:59;;;;;;;16.48;5.22;;;9.20;99.90;;;;;;4940272;24;20055;-88
2021/09/28 01:55:26;;;;;;;20.25;4.90;;;9.30;99.90;;;;;;4793399;29;20041;-95
2021/09/28 01:57:56;;;;;;;14.80;4.90;;;9.20;99.90;;;;;;4787860;29;20051;-92
2021/09/28 02:00:26;;;;;;;10.45;5.03;;;9.20;99.90;;;;;;4788761;29;20069;-95
2021/09/28 02:02:51;;;;;;;;;;;9.20;99.90;;;;;;4803736;29;20055;-91
2021/09/28 02:05:17;;;;;;;14.93;4.32;;;9.20;99.90;;;;;;4803954;29;19958;-95
2021/09/28 02:07:44;;;;;;;14.20;5.28;;;9.20;99.90;;;;;;4788299;29;20354;-95
2021/09/28 02:10:10;;;;;;;15.52;5.53;;;9.10;99.90;;;;;;4804898;29;20089;-95
2021/09/28 02:12:37;;;;;;;11.27;5.68;;;9.10;99.90;;;;;;4802443;29;20051;-96
2021/09/28 02:15:03;;;;;;;6.82;4.47;;;9.10;99.90;;;;;;4804480;29;20055;-94
2021/09/28 02:17:29;;;;;;;14.38;5.55;;;9.10;99.90;;;;;;4787071;29;20400;-92
2021/09/28 02:19:54;;;;;;;16.38;6.10;;;9.00;99.90;;;;;;4818500;29;20072;-88
2021/09/28 02:35:47;;;;;;;13.85;6.20;;;9.00;99.90;;;;;;5590872;24;20047;31
2021/09/28 02:38:13;;;;;;;13.77;5.40;;;9.00;99.90;;;;;;4860202;24;20075;-95
2021/09/28 02:40:39;;;;;;;18.15;7.00;;;9.00;99.90;;;;;;4930266;24;20062;-96
2021/09/28 02:45:36;;;;;;;32.53;7.95;;;9.10;99.90;;;;;;5334351;24;20055;-87
2021/09/28 02:48:03;;;;;;;15.82;7.82;;;9.10;99.90;;;;;;5503099;24;20094;-91
2021/09/28 02:50:33;;;;;;;17.67;7.45;;;9.10;99.90;;;;;;4764486;30;20059;-93
2021/09/28 02:52:59;;;;;;;12.93;7.28;;;9.10;99.90;;;;;;4762443;30;20120;-96
2021/09/28 02:55:24;;;;;;;18.25;7.40;;;9.10;99.90;;;;;;4742675;30;20111;-94
2021/09/28 02:57:50;;;;;;;18.17;8.10;;;9.10;99.90;;;;;;4742038;30;20120;-96
2021/09/28 03:00:16;;;;;;;17.60;6.82;;;9.10;99.90;;;;;;4755820;30;20141;-93
2021/09/28 03:02:42;;;;;;;15.73;6.20;;;9.10;99.90;;;;;;5098872;24;20071;-94
2021/09/28 03:05:08;;;;;;;13.68;7.25;;;9.10;99.90;;;;;;4734681;30;20060;-93
2021/09/28 03:07:34;;;;;;;14.68;6.35;;;9.10;99.90;;;;;;5012878;24;20172;-88
2021/09/28 03:18:34;;;;;;;21.10;7.45;;;9.00;99.90;;;;;;5099760;24;20104;-96
2021/09/28 03:21:00;;;;;;;20.48;8.13;;;9.00;99.90;;;;;;4762255;30;20063;-91
2021/09/28 03:23:26;;;;;;;12.35;7.18;;;9.00;99.90;;;;;;4757185;30;20065;-96
2021/09/28 03:25:52;;;;;;;22.73;8.30;;;9.00;99.90;;;;;;4768590;30;20044;-93
2021/09/28 03:28:18;;;;;;;18.35;8.70;;;9.00;99.90;;;;;;4759310;30;20219;-93
2021/09/28 03:30:44;;;;;;;22.45;8.30;;;9.00;99.90;;;;;;4738172;30;20067;-95
2021/09/28 03:33:10;;;;;;;20.52;8.98;;;9.00;99.90;;;;;;4770503;30;20080;-96
2021/09/28 03:35:36;;;;;;;26.15;9.45;;;8.90;99.90;;;;;;4741829;30;20067;-96
2021/09/28 03:38:01;;;;;;;22.25;7.55;;;9.00;99.90;;;;;;4762246;30;20064;-96
2021/09/28 03:40:29;;;;;;;15.25;7.35;;;8.90;99.90;;;;;;4745231;30;20497;-94
2021/09/28 03:42:57;;;;;;;26.48;9.23;;;8.90;99.90;;;;;;4753470;30;20063;-94
2021/09/28 03:45:23;;;;;;;20.85;8.60;;;8.90;99.90;;;;;;4785925;30;20055;-94
2021/09/28 03:47:56;;;;;;;19.75;8.05;;;8.90;99.90;;;;;;5133485;24;20462;31
2021/09/28 03:50:22;;;;;;;21.77;7.97;;;8.90;99.90;;;;;;4760034;30;20087;-96
2021/09/28 03:52:48;;;;;;;25.55;8.82;;;8.90;99.90;;;;;;4757962;30;20113;-93
2021/09/28 03:58:12;;;;;;;23.00;9.82;;;8.90;99.90;;;;;;4819777;24;20107;-95
2021/09/28 04:00:38;;;;;;;26.45;9.85;;;8.80;99.90;;;;;;4800407;30;20096;-95
2021/09/28 04:03:05;;;;;;;24.08;9.05;;;8.80;99.90;;;;;;4799517;30;20051;-93
2021/09/28 04:05:32;;;;;;;22.95;10.90;;;8.90;99.90;;;;;;4779438;30;20046;-94
2021/09/28 04:07:57;;;;;;;17.35;9.10;;;8.90;99.90;;;;;;4786328;30;20105;-95
2021/09/28 04:10:23;;;;;;;17.98;8.15;;;8.80;99.90;;;;;;4774424;30;20524;-95
2021/09/28 04:12:49;;;;;;;34.08;11.48;;;8.80;99.90;;;;;;4791784;30;20057;-96
2021/09/28 04:15:16;;;;;;;24.63;11.13;;;8.80;99.90;;;;;;4798764;29;20027;-96
2021/09/28 04:17:42;;;;;;;26.02;12.95;;;8.80;99.90;;;;;;4793506;29;20083;-87
2021/09/28 04:20:08;;;;;;;30.05;12.60;;;8.80;99.90;;;;;;4804412;29;20093;-96
2021/09/28 04:22:34;;;;;;;26.20;13.38;;;8.80;99.90;;;;;;4765263;29;20104;-94
2021/09/28 04:25:04;;;;;;;25.30;13.10;;;8.80;99.90;;;;;;4775271;29;20073;-95
2021/09/28 04:27:30;;;;;;;35.25;13.55;;;8.80;99.90;;;;;;4790585;29;20058;-95
2021/09/28 04:29:55;;;;;;;27.92;12.73;;;8.80;99.90;;;;;;4774372;29;20039;-89
2021/09/28 04:32:21;;;;;;;25.08;10.65;;;8.80;99.90;;;;;;4791034;29;20545;-93
2021/09/28 04:34:47;;;;;;;29.65;14.13;;;8.70;99.90;;;;;;4777556;29;20046;-88
2021/09/28 04:37:12;;;;;;;31.20;13.73;;;8.70;99.90;;;;;;4782784;30;20051;-92
2021/09/28 04:39:38;;;;;;;31.35;13.75;;;8.80;99.90;;;;;;4800174;29;20054;-96
2021/09/28 04:42:05;;;;;;;29.30;14.30;;;8.80;99.90;;;;;;4789571;29;20083;-93
2021/09/28 04:44:30;;;;;;;28.83;12.55;;;8.70;99.90;;;;;;4805811;29;20054;-94
2021/09/28 04:46:56;;;;;;;30.00;15.43;;;8.70;99.90;;;;;;4799628;29;20520;-89
2021/09/28 04:49:22;;;;;;;44.40;14.57;;;8.70;99.90;;;;;;4789775;29;20047;-93
2021/09/28 04:51:47;;;;;;;35.42;15.88;;;8.70;99.90;;;;;;4787435;29;20057;-89
2021/09/28 04:54:13;;;;;;;23.50;13.38;;;8.70;99.90;;;;;;4782383;29;20066;-96
2021/09/28 04:56:39;;;;;;;31.58;15.27;;;8.60;99.90;;;;;;4787985;29;20066;-95
2021/09/28 04:59:05;;;;;;;35.22;15.65;;;8.60;99.90;;;;;;4778612;30;20560;-90
2021/09/28 05:01:30;;;;;;;36.70;16.17;;;8.60;99.90;;;;;;4766520;29;20051;-94
2021/09/28 05:03:56;;;;;;;26.83;13.57;;;8.60;99.90;;;;;;4757176;30;20137;-90
2021/09/28 05:06:22;;;;;;;39.45;15.65;;;8.60;99.90;;;;;;4771775;30;20055;-93
2021/09/28 05:08:47;;;;;;;30.40;15.05;;;8.60;99.90;;;;;;4787437;29;20078;-87
2021/09/28 05:11:13;;;;;;;28.48;14.32;;;8.60;99.90;;;;;;4771377;30;20090;-95
2021/09/28 05:13:40;;;;;;;42.10;16.50;;;8.50;99.90;;;;;;4787627;29;20532;-95
2021/09/28 05:16:06;;;;;;;35.22;16.92;;;8.50;99.90;;;;;;4770824;30;20050;-95
2021/09/28 05:18:32;;;;;;;32.42;16.17;;;8.50;99.90;;;;;;4771422;30;20059;-93
2021/09/28 05:20:59;;;;;;;27.88;14.18;;;8.50;99.90;;;;;;4770187;29;20058;-93
2021/09/28 05:23:25;;;;;;;34.90;16.88;;;8.50;99.90;;;;;;4771053;30;20059;-93
2021/09/28 05:25:50;;;;;;;31.27;15.85;;;8.50;99.90;;;;;;4770623;29;20049;-88
2021/09/28 05:28:16;;;;;;;30.90;15.60;;;8.50;99.90;;;;;;4771260;30;20059;-90
2021/09/28 05:30:44;;;;;;;48.20;16.08;;;8.50;99.90;;;;;;4750284;30;20111;-95
2021/09/28 05:33:11;;;;;;;39.40;14.45;;;8.50;99.90;;;;;;4755480;30;20062;-91
2021/09/28 05:35:37;;;;;;;25.25;13.82;;;8.50;99.90;;;;;;4770992;30;20055;-93
2021/09/28 05:38:03;;;;;;;25.02;14.77;;;8.40;99.90;;;;;;4769833;29;20509;-91
2021/09/28 05:40:28;;;;;;;34.15;14.73;;;8.40;99.90;;;;;;4755824;30;20066;-92
2021/09/28 05:42:54;;;;;;;39.15;16.85;;;8.40;99.90;;;;;;4769940;29;20062;-92
2021/09/28 05:45:20;;;;;;;27.88;15.68;;;8.50;99.90;;;;;;4770867;30;20059;-91
2021/09/28 05:47:47;;;;;;;26.90;14.43;;;8.50;99.90;;;;;;4771233;30;20090;-94
2021/09/28 05:50:13;;;;;;;36.47;16.52;;;8.50;99.90;;;;;;4785502;29;20500;-89
2021/09/28 05:52:39;;;;;;;39.10;18.52;;;8.50;99.90;;;;;;4773879;30;20051;-96
2021/09/28 05:55:05;;;;;;;35.13;16.30;;;8.50;99.90;;;;;;4757114;29;20048;-95
2021/09/28 05:57:31;;;;;;;36.88;17.92;;;8.60;99.90;;;;;;4782352;29;20062;-94
2021/09/28 05:59:57;;;;;;;43.92;17.35;;;8.60;99.90;;;;;;4787900;29;20484;-95
2021/09/28 06:02:23;;;;;;;55.08;21.40;;;8.60;99.90;;;;;;4804739;29;20130;-93
2021/09/28 06:04:48;;;;;;;38.40;17.75;;;8.60;99.90;;;;;;4773638;29;20140;-92
2021/09/28 06:07:16;;;;;;;37.92;17.25;;;8.60;99.90;;;;;;4757617;29;20143;-93
2021/09/28 06:09:42;;;;;;;37.10;15.23;;;8.70;99.90;;;;;;4787778;29;20047;-96
2021/09/28 06:12:10;;;;;;;33.13;17.80;;;8.60;99.90;;;;;;4788986;29;20291;-94
2021/09/28 06:14:37;;;;;;;37.13;16.77;;;8.60;99.90;;;;;;4789688;29;20065;-95
2021/09/28 06:17:03;;;;;;;35.90;18.17;;;8.70;99.90;;;;;;4804395;29;20054;-95
2021/09/28 06:19:30;;;;;;;48.95;18.00;;;8.80;99.90;;;;;;4788582;29;20059;-94
2021/09/28 06:21:56;;;;;;;35.55;17.35;;;8.80;99.90;;;;;;4789137;29;20047;-87
2021/09/28 06:24:22;;;;;;;35.33;16.67;;;8.80;99.90;;;;;;4772475;29;20077;-94
2021/09/28 06:26:49;;;;;;;31.73;14.98;;;8.90;99.90;;;;;;4768714;29;20561;-92
2021/09/28 06:29:15;;;;;;;32.08;16.33;;;8.90;99.90;;;;;;4769593;29;20046;-95
2021/09/28 06:31:42;;;;;;;33.63;17.58;;;8.90;99.90;;;;;;4757996;29;20104;-93
2021/09/28 06:34:09;;;;;;;47.45;17.23;;;9.00;99.90;;;;;;4770125;29;20047;-90
2021/09/28 06:36:35;;;;;;;39.47;16.48;;;9.00;99.90;;;;;;4772484;29;20050;-96
2021/09/28 06:39:02;;;;;;;47.83;20.00;;;9.10;99.90;;;;;;4776951;29;20543;-96
2021/09/28 06:41:28;;;;;;;42.08;19.40;;;9.10;99.90;;;;;;4780093;29;20066;-90
2021/09/28 06:43:54;;;;;;;50.80;20.25;;;9.20;99.90;;;;;;4786293;29;20047;-90
2021/09/28 06:46:20;;;;;;;42.85;17.48;;;9.30;99.90;;;;;;4790949;29;20206;-93
2021/09/28 06:48:47;;;;;;;31.60;16.70;;;9.30;99.90;;;;;;4770211;30;20051;-95
2021/09/28 06:51:13;;;;;;;38.25;18.05;;;9.40;99.90;;;;;;4786964;29;20485;-96
2021/09/28 06:53:39;;;;;;;36.88;16.50;;;9.40;99.90;;;;;;4773598;29;20061;-93
2021/09/28 06:56:05;;;;;;;32.92;16.00;;;9.50;99.90;;;;;;4785366;29;20520;-92
2021/09/28 06:58:30;;;;;;;37.03;16.58;;;9.50;99.90;;;;;;4773370;29;20065;-92
2021/09/28 07:00:56;;;;;;;47.83;18.33;;;9.60;99.90;;;;;;4757010;29;20057;-90
2021/09/28 07:03:22;;;;;;;40.97;17.38;;;9.60;99.90;;;;;;4780096;29;20553;-91
2021/09/28 07:05:48;;;;;;;38.95;16.70;;;9.70;99.90;;;;;;4786680;29;20046;-92
2021/09/28 07:08:15;;;;;;;35.67;17.25;;;9.80;99.90;;;;;;4786347;29;20078;-93
2021/09/28 07:10:41;;;;;;;42.90;17.83;;;9.80;99.90;;;;;;4777036;29;20054;-89
2021/09/28 07:13:07;;;;;;;40.78;16.50;;;9.90;99.90;;;;;;4786103;29;20050;-91
2021/09/28 07:15:33;;;;;;;34.85;16.52;;;9.90;99.90;;;;;;4780357;29;20047;-92
2021/09/28 07:17:59;;;;;;;42.78;17.27;;;10.00;99.90;;;;;;4794641;29;20112;-87
2021/09/28 07:20:25;;;;;;;38.20;16.88;;;10.10;99.90;;;;;;4768197;29;20043;-90
2021/09/28 07:22:51;;;;;;;45.50;17.30;;;10.10;99.90;;;;;;4775060;29;20042;-89
2021/09/28 07:25:17;;;;;;;41.45;16.42;;;10.20;99.90;;;;;;4769427;29;20086;-90
2021/09/28 07:27:43;;;;;;;39.40;17.58;;;10.30;99.90;;;;;;4770641;29;20062;-91
2021/09/28 07:30:09;;;;;;;42.55;17.42;;;10.30;99.90;;;;;;4766365;29;20054;-92
2021/09/28 07:32:35;;;;;;;31.42;14.60;;;10.40;99.90;;;;;;4785418;29;20504;-91
2021/09/28 07:35:01;;;;;;;40.10;17.33;;;10.40;99.90;;;;;;4770883;29;20404;-87
2021/09/28 07:37:28;;;;;;;42.95;16.70;;;10.50;99.90;;;;;;4785603;29;20063;-91
2021/09/28 07:39:57;;;;;;;41.42;18.20;;;10.60;99.90;;;;;;4778140;29;20074;-90
2021/09/28 07:42:24;;;;;;;42.90;17.95;;;10.70;99.90;;;;;;4785564;29;20690;-90
2021/09/28 07:44:55;;;;;;;41.10;16.50;;;10.80;99.90;;;;;;4781498;29;20094;-93
2021/09/28 07:47:21;;;;;;;57.53;18.02;;;10.80;99.90;;;;;;4771027;29;20059;-90
2021/09/28 07:49:47;;;;;;;38.35;18.77;;;10.90;99.90;;;;;;4768492;29;20054;-88
2021/09/28 07:52:14;;;;;;;44.75;18.42;;;11.00;99.90;;;;;;4753966;30;20055;-92
2021/09/28 07:54:40;;;;;;;32.63;16.20;;;11.00;99.90;;;;;;4767092;29;20086;-89
2021/09/28 07:57:08;;;;;;;44.78;16.10;;;11.00;99.90;;;;;;4769585;29;20063;-89
2021/09/28 07:59:35;;;;;;;36.85;14.57;;;11.10;99.90;;;;;;4778261;29;20488;-89
2021/09/28 08:02:00;;;;;;;40.55;15.32;;;11.10;99.90;;;;;;4784466;29;20059;-89
2021/09/28 08:04:26;;;;;;;36.10;14.85;;;11.20;99.90;;;;;;4752157;30;20131;-91
2021/09/28 08:06:54;;;;;;;35.00;15.05;;;11.30;99.90;;;;;;4754367;29;20130;-90
2021/09/28 08:09:20;;;;;;;32.72;14.20;;;11.40;99.90;;;;;;4780604;29;20121;-90
2021/09/28 08:11:46;;;;;;;31.70;14.18;;;11.40;99.90;;;;;;4777471;29;20051;-90
2021/09/28 08:14:12;;;;;;;42.65;13.60;;;11.50;99.90;;;;;;4769965;29;20100;-90
2021/09/28 08:16:38;;;;;;;44.03;13.20;;;11.50;99.90;;;;;;4770743;29;20050;-91
2021/09/28 08:19:04;;;;;;;30.15;14.05;;;11.60;99.90;;;;;;4785769;29;20470;-91
2021/09/28 08:21:30;;;;;;;34.25;14.20;;;11.70;99.90;;;;;;4801155;29;20134;-90
2021/09/28 08:23:56;;;;;;;36.25;14.45;;;11.70;99.90;;;;;;4801589;29;20489;-90
2021/09/28 08:29:11;;;;;;;35.83;13.15;;;11.90;99.90;;;;;;4766956;29;20207;-90
2021/09/28 08:31:43;;;;;;;38.05;14.30;;;11.90;99.90;;;;;;4796486;29;20042;-90
2021/09/28 08:34:10;;;;;;;29.88;14.02;;;12.00;99.90;;;;;;4771337;29;20561;-90
2021/09/28 08:36:36;;;;;;;32.47;14.05;;;12.10;99.90;;;;;;4783690;29;20074;-92
2021/09/28 08:39:04;;;;;;;29.17;12.30;;;12.30;99.90;;;;;;4801529;29;20104;-93
2021/09/28 08:41:30;;;;;;;30.38;12.40;;;12.30;99.90;;;;;;4773192;29;20312;-91
2021/09/28 08:43:56;;;;;;;31.98;13.48;;;12.50;99.90;;;;;;4785594;29;20524;-93
2021/09/28 08:46:22;;;;;;;24.42;10.25;;;12.50;99.90;;;;;;4770366;29;20515;-94
2021/09/28 08:48:48;;;;;;;36.28;12.05;;;12.50;99.90;;;;;;4785855;29;20108;-93
2021/09/28 08:51:15;;;;;;;27.67;8.80;;;12.50;99.90;;;;;;4774640;29;20061;-93
2021/09/28 08:53:41;;;;;;;23.35;9.52;;;12.60;99.90;;;;;;4785640;29;20104;-93
2021/09/28 08:56:09;;;;;;;23.17;9.05;;;12.70;99.90;;;;;;4783205;29;20152;-93
2021/09/28 08:59:02;;;;;;;28.52;10.02;;;12.70;99.90;;;;;;4785054;29;20124;-94
2021/09/28 09:01:32;;;;;;;30.25;10.02;;;12.80;99.90;;;;;;4794176;29;20062;-91
2021/09/28 09:04:15;;;;;;;21.27;7.57;;;12.90;99.90;;;;;;4780855;29;20122;-95
2021/09/28 09:06:44;;;;;;;26.65;8.50;;;13.00;99.90;;;;;;4778502;29;20506;-93
2021/09/28 09:09:12;;;;;;;31.90;8.25;;;13.00;99.90;;;;;;4789181;29;20504;-91
2021/09/28 09:11:43;;;;;;;20.23;6.53;;;13.00;99.90;;;;;;4784496;29;20054;-93
2021/09/28 09:14:16;;;;;;;20.95;7.35;;;13.10;99.90;;;;;;4789099;29;20065;-93
2021/09/28 09:16:43;;;;;;;26.77;7.05;;;13.20;99.90;;;;;;4789038;29;20051;-95
2021/09/28 09:19:22;;;;;;;29.02;7.43;;;13.30;99.90;;;;;;4789209;29;20101;-95
2021/09/28 09:21:56;;;;;;;26.65;8.05;;;13.30;99.90;;;;;;4805154;29;20057;-93
2021/09/28 09:24:41;;;;;;;30.85;7.80;;;13.40;99.90;;;;;;4772968;29;20051;-94
2021/09/28 09:27:11;;;;;;;34.80;8.48;;;13.50;99.90;;;;;;4804143;29;20058;-94
2021/09/28 09:29:37;;;;;;;;;;;13.50;99.90;;;;;;4788876;29;20054;-94
2021/09/28 09:32:03;;;;;;;28.00;7.53;;;13.70;99.90;;;;;;4773986;29;20078;-94
2021/09/28 09:34:29;;;;;;;23.10;6.55;;;13.70;99.90;;;;;;4803261;29;20047;-95
2021/09/28 09:36:58;;;;;;;23.17;5.30;;;13.80;99.90;;;;;;4788664;29;20046;-95
2021/09/28 09:39:26;;;;;;;21.95;6.60;;;13.80;99.90;;;;;;4787572;29;20411;-92
2021/09/28 09:42:04;;;;;;;21.10;5.40;;;13.90;99.90;;;;;;4789375;29;20070;-94
2021/09/28 09:44:31;;;;;;;15.38;5.05;;;14.00;99.90;;;;;;4788035;29;20050;-93
2021/09/28 09:46:59;;;;;;;27.30;6.60;;;14.10;99.90;;;;;;4788955;29;20131;-96
2021/09/28 09:49:27;;;;;;;19.40;4.95;;;14.20;99.90;;;;;;4772767;29;20051;-94
2021/09/28 09:51:55;;;;;;;29.55;6.90;;;14.20;99.90;;;;;;4788410;29;20400;-96
2021/09/28 09:54:33;;;;;;;16.55;4.97;;;14.30;99.90;;;;;;4787614;29;20484;-96
2021/09/28 09:57:04;;;;;;;25.40;5.65;;;14.40;99.90;;;;;;4773450;29;20077;-96
2021/09/28 09:59:30;;;;;;;16.88;4.50;;;14.40;99.90;;;;;;4773187;29;20088;-96
2021/09/28 10:01:56;;;;;;;23.90;5.85;;;14.50;99.90;;;;;;4758784;29;20082;-95
2021/09/28 10:04:23;;;;;;;20.85;4.72;;;14.50;99.90;;;;;;4787353;29;20083;-96
2021/09/28 10:06:51;;;;;;;16.10;3.85;;;14.60;99.90;;;;;;4777099;29;20059;-95
2021/09/28 10:09:26;;;;;;;23.55;4.32;;;14.70;99.90;;;;;;4784485;30;20493;-96
2021/09/28 10:12:02;;;;;;;25.63;6.72;;;14.80;99.90;;;;;;4783540;29;20065;-94
2021/09/28 10:14:40;;;;;;;20.23;4.80;;;14.90;99.90;;;;;;4787853;29;20082;-93
2021/09/28 10:17:26;;;;;;;14.60;3.70;;;14.90;99.90;;;;;;4777693;29;20051;-96
2021/09/28 10:19:56;;;;;;;17.00;3.35;;;14.90;99.90;;;;;;4776724;29;20327;-96
2021/09/28 10:22:40;;;;;;;16.13;3.40;;;15.00;99.90;;;;;;4803714;29;20116;-92
2021/09/28 10:25:19;;;;;;;23.05;4.43;;;15.10;99.90;;;;;;4759151;30;20104;-94
2021/09/28 10:27:55;;;;;;;29.80;3.95;;;15.20;99.90;;;;;;4783654;29;20125;-95
2021/09/28 10:30:35;;;;;;;17.65;3.03;;;15.30;99.90;;;;;;4770253;30;20110;-91
2021/09/28 10:33:31;;;;;;;15.50;3.35;;;15.30;99.90;;;;;;4787674;29;20062;-96
2021/09/28 10:35:57;;;;;;;20.38;3.83;;;15.40;99.90;;;;;;4770718;30;20055;-96
2021/09/28 10:38:44;;;;;;;14.27;4.00;;;15.50;99.90;;;;;;4784503;29;20108;-91
2021/09/28 10:41:28;;;;;;;20.20;3.00;;;15.60;99.90;;;;;;4788139;29;20108;-96
2021/09/28 10:44:15;;;;;;;16.20;3.53;;;15.60;99.90;;;;;;4779092;29;20074;-95
2021/09/28 10:46:41;;;;;;;19.80;2.97;;;15.70;99.90;;;;;;4761180;29;20097;-96
2021/09/28 10:49:27;;;;;;;15.45;2.63;;;15.80;99.90;;;;;;4805925;29;20078;-96
2021/09/28 10:52:32;;;;;;;15.15;2.75;;;15.90;99.90;;;;;;4771974;30;20055;-96
2021/09/28 10:55:07;;;;;;;20.60;3.15;;;16.00;99.90;;;;;;4764295;29;20071;-96
2021/09/28 10:58:09;;;;;;;18.77;2.97;;;16.10;99.90;;;;;;4775647;29;20047;-96
2021/09/28 11:00:38;;;;;;;12.90;2.38;;;16.10;99.90;;;;;;4765851;30;20054;-95
2021/09/28 11:03:04;;;;;;;17.83;2.42;;;16.30;99.90;;;;;;4768485;30;20070;-93
2021/09/28 11:05:30;;;;;;;11.75;2.60;;;16.30;99.90;;;;;;4767378;30;20043;-94
2021/09/28 11:08:00;;;;;;;15.00;2.35;;;16.40;99.90;;;;;;4768559;30;20059;-96
2021/09/28 11:10:26;;;;;;;;;;;16.40;99.90;;;;;;4742063;30;20052;-90
2021/09/28 11:12:52;;;;;;;11.40;2.63;;;16.50;99.90;;;;;;4783689;29;19994;-94
2021/09/28 11:15:22;;;;;;;11.57;2.13;;;16.60;99.90;;;;;;4770228;30;20508;-95
2021/09/28 11:17:48;;;;;;;14.63;2.35;;;16.80;99.90;;;;;;4768680;29;20055;-92
2021/09/28 11:20:24;;;;;;;12.30;1.65;;;17.00;99.90;;;;;;4767358;30;20073;-96
2021/09/28 11:23:02;;;;;;;7.47;1.67;;;17.20;99.90;;;;;;4760407;30;20143;-95
2021/09/28 11:25:28;;;;;;;17.73;2.60;;;17.40;99.90;;;;;;4776475;29;20107;-91
2021/09/28 11:28:17;;;;;;;15.85;2.85;;;17.50;99.90;;;;;;4776535;29;20055;-96
2021/09/28 11:30:55;;;;;;;14.18;2.05;;;17.60;99.90;;;;;;4748751;30;20055;-96
2021/09/28 11:33:21;;;;;;;19.70;2.88;;;17.70;99.90;;;;;;4771641;30;20111;-95
2021/09/28 11:36:05;;;;;;;17.48;2.20;;;17.80;99.90;;;;;;4766337;30;20043;-96
2021/09/28 11:38:36;;;;;;;5.88;1.33;;;17.90;99.90;;;;;;4767458;30;20093;-94
2021/09/28 11:41:21;;;;;;;10.77;2.63;;;17.90;99.90;;;;;;4783568;29;20083;-95
2021/09/28 11:43:53;;;;;;;9.45;1.60;;;17.80;99.90;;;;;;4754882;30;20055;-95
2021/09/28 11:46:21;;;;;;;19.70;4.18;;;17.90;99.90;;;;;;4759200;29;20055;-96
2021/09/28 11:48:59;;;;;;;14.45;2.25;;;18.00;99.90;;;;;;4763525;30;20047;-96
2021/09/28 11:51:30;;;;;;;10.80;1.58;;;18.10;99.90;;;;;;4761135;29;20511;-92
2021/09/28 11:54:04;;;;;;;14.20;2.97;;;18.30;99.90;;;;;;4787588;29;20091;-92
2021/09/28 11:59:19;;;;;;;9.23;1.80;;;18.40;99.90;;;;;;5100704;27;20396;-95
2021/09/28 12:01:46;;;;;;;9.18;1.75;;;18.60;99.90;;;;;;5071285;28;20053;-95
2021/09/28 12:09:34;;;;;;;14.90;2.55;;;18.90;99.90;;;;;;5090810;28;20558;-90
2021/09/28 12:12:04;;;;;;;9.23;2.00;;;19.10;99.90;;;;;;5068630;28;20053;-93
2021/09/28 12:14:34;;;;;;;10.52;1.92;;;19.20;99.90;;;;;;5075485;28;20689;-88
2021/09/28 12:17:12;;;;;;;13.30;2.17;;;19.30;99.90;;;;;;5085169;28;20446;-95
2021/09/28 12:19:41;;;;;;;13.60;1.80;;;19.30;99.90;;;;;;5067019;28;20135;-94
2021/09/28 12:22:07;;;;;;;9.48;1.80;;;19.10;99.90;;;;;;5075132;28;20076;-95
2021/09/28 12:24:49;;;;;;;10.75;2.15;;;19.10;99.90;;;;;;5083044;28;20083;-88
2021/09/28 12:27:15;;;;;;;11.02;2.47;;;19.00;99.90;;;;;;5069386;28;20059;-95
2021/09/28 12:29:44;;;;;;;6.40;1.40;;;18.90;99.90;;;;;;5101099;28;20673;-96
2021/09/28 12:32:19;;;;;;;11.33;2.10;;;19.00;99.90;;;;;;5077664;28;20056;-95
2021/09/28 12:34:52;;;;;;;9.50;1.75;;;19.00;99.90;;;;;;5083440;28;20094;-94
2021/09/28 12:37:18;;;;;;;9.07;1.63;;;19.00;99.90;;;;;;5085186;28;20040;-95
2021/09/28 12:40:07;;;;;;;6.65;1.58;;;19.00;99.90;;;;;;5085078;28;20503;-95
2021/09/28 12:42:35;;;;;;;8.27;1.75;;;18.90;99.90;;;;;;5085072;28;20188;-90
2021/09/28 12:45:05;;;;;;;9.90;1.58;;;18.90;99.90;;;;;;5085955;28;20056;-94
2021/09/28 12:47:31;;;;;;;;;;;19.10;99.90;;;;;;5078301;28;20048;-94
2021/09/28 12:49:58;;;;;;;12.27;1.48;;;19.30;99.90;;;;;;5083911;28;20052;-92
2021/09/28 12:52:24;;;;;;;8.85;1.83;;;19.30;99.90;;;;;;5085267;28;20121;-95
2021/09/28 12:54:50;;;;;;;8.95;1.83;;;19.30;99.90;;;;;;5066785;28;20044;-94
2021/09/28 12:57:16;;;;;;;11.27;1.80;;;19.30;99.90;;;;;;5084665;28;20082;-94
2021/09/28 12:59:42;;;;;;;10.52;1.63;;;19.40;99.90;;;;;;5100787;28;20059;-94
2021/09/28 13:02:08;;;;;;;9.65;1.67;;;19.60;99.90;;;;;;5054812;28;20051;-93
2021/09/28 13:04:36;;;;;;;9.88;1.48;;;19.80;99.90;;;;;;5085653;28;20048;-90
2021/09/28 13:07:07;;;;;;;9.05;1.83;;;19.90;99.90;;;;;;5084319;28;20052;-94
2021/09/28 13:09:34;;;;;;;10.25;2.13;;;20.20;99.90;;;;;;5069952;28;20413;-93
2021/09/28 13:12:00;;;;;;;8.18;1.42;;;20.40;99.90;;;;;;5062765;28;20543;-93
2021/09/28 13:14:28;;;;;;;8.73;2.10;;;20.40;99.90;;;;;;5070823;28;20048;-93
2021/09/28 13:16:57;;;;;;;13.68;2.25;;;20.30;99.90;;;;;;5070245;28;20500;-93
2021/09/28 13:19:23;;;;;;;11.05;2.15;;;20.40;99.90;;;;;;5071781;28;20080;-93
2021/09/28 13:21:48;;;;;;;11.00;1.60;;;20.40;99.90;;;;;;5060785;28;20878;-92
2021/09/28 13:24:14;;;;;;;10.60;2.40;;;20.40;99.90;;;;;;5037029;28;20132;-91
2021/09/28 13:26:40;;;;;;;7.97;1.52;;;20.80;99.90;;;;;;5070092;28;20115;-89
2021/09/28 13:29:05;;;;;;;7.97;1.98;;;20.90;99.90;;;;;;5070840;28;20040;-94
2021/09/28 13:31:31;;;;;;;6.57;1.42;;;21.00;99.90;;;;;;5047672;28;20049;-92
2021/09/28 13:33:57;;;;;;;11.05;1.50;;;21.20;99.90;;;;;;5060875;28;20500;-90
2021/09/28 13:36:24;;;;;;;13.98;2.38;;;21.20;99.90;;;;;;5053467;28;20499;-92
2021/09/28 13:38:50;;;;;;;12.40;2.03;;;21.10;99.90;;;;;;5052853;28;20041;-91